Time;durP1;ratioP1;P1;durP2;ratioP2;P2;SDS_P1;SDS_P2;PMS_P1;PMS_P2;Temp;Humidity;BMP_temperature;BMP_pressure;BME280_temperature;BME280_humidity;BME280_pressure;Samples;Min_cycle;Max_cycle;Signal;HPM_P1;HPM_P2
2021/12/22 00:00:54;;;;;;;1.85;1.75;;;;;;;-22.17;74.95;98727.00;4983257;28;20513;-89
2021/12/22 00:03:23;;;;;;;1.55;1.45;;;;;;;-22.14;75.20;98733.75;4981088;28;20051;-90
2021/12/22 00:05:52;;;;;;;1.40;1.30;;;;;;;-22.23;74.90;98739.19;4980078;28;20118;-91
2021/12/22 00:08:19;;;;;;;1.40;1.30;;;;;;;-22.27;75.22;98735.06;4982275;28;20047;-90
2021/12/22 00:10:47;;;;;;;1.60;1.50;;;;;;;-22.28;75.29;98733.38;4983777;28;20057;-89
2021/12/22 00:13:17;;;;;;;1.60;1.50;;;;;;;-22.30;75.26;98733.44;4975791;28;20427;-89
2021/12/22 00:15:44;;;;;;;1.50;1.40;;;;;;;-22.28;75.17;98731.66;4991773;28;20054;-88
2021/12/22 00:18:11;;;;;;;1.42;1.33;;;;;;;-22.33;75.09;98731.81;4990457;28;20082;-89
2021/12/22 00:20:38;;;;;;;1.40;1.30;;;;;;;-22.39;75.07;98729.44;4971743;28;20418;-92
2021/12/22 00:23:05;;;;;;;1.45;1.35;;;;;;;-22.44;75.25;98728.72;4978401;28;20062;-89
2021/12/22 00:25:32;;;;;;;1.60;1.50;;;;;;;-22.46;75.37;98727.94;4978067;28;20050;-90
2021/12/22 00:27:59;;;;;;;1.40;1.30;;;;;;;-22.47;75.57;98728.81;4977237;28;20149;-90
2021/12/22 00:30:27;;;;;;;1.60;1.50;;;;;;;-22.50;75.49;98728.06;4959938;28;20103;-90
2021/12/22 00:33:02;;;;;;;1.90;1.80;;;;;;;-22.55;75.67;98730.78;4976803;28;20503;-90
2021/12/22 00:35:37;;;;;;;1.67;1.58;;;;;;;-22.56;75.72;98734.22;4977142;28;20058;-91
2021/12/22 00:38:10;;;;;;;1.63;1.52;;;;;;;-22.57;75.96;98738.50;4972480;28;20058;-91
2021/12/22 00:40:38;;;;;;;1.60;1.50;;;;;;;-22.62;76.06;98724.16;4957807;29;20051;-90
2021/12/22 00:43:05;;;;;;;1.50;1.40;;;;;;;-22.60;76.03;98730.91;4957751;29;20058;-90
2021/12/22 00:45:34;;;;;;;1.50;1.40;;;;;;;-22.56;76.06;98731.66;4958009;29;20562;-90
2021/12/22 00:48:06;;;;;;;1.60;1.50;;;;;;;-22.48;75.83;98741.66;4956601;29;20043;-90
2021/12/22 00:50:35;;;;;;;1.40;1.30;;;;;;;-22.44;76.02;98740.69;4939814;29;20081;-89
2021/12/22 00:53:03;;;;;;;1.77;1.67;;;;;;;-22.40;75.66;98737.13;4955470;29;20573;-90
2021/12/22 00:55:30;;;;;;;1.60;1.50;;;;;;;-22.35;75.53;98740.41;4956451;29;20073;-90
2021/12/22 00:57:57;;;;;;;1.40;1.30;;;;;;;-22.38;75.45;98746.47;4938231;29;20502;-90
2021/12/22 01:00:26;;;;;;;1.70;1.60;;;;;;;-22.37;75.31;98743.00;4956193;29;20537;-90
2021/12/22 01:02:53;;;;;;;1.60;1.50;;;;;;;-22.43;75.30;98739.78;4955854;29;20051;-89
2021/12/22 01:05:21;;;;;;;1.55;1.45;;;;;;;-22.42;75.39;98739.75;4956349;29;20103;-89
2021/12/22 01:07:49;;;;;;;1.50;1.40;;;;;;;-22.51;74.97;98727.22;4954301;28;20522;-89
2021/12/22 01:10:20;;;;;;;1.50;1.40;;;;;;;-22.46;74.98;98738.16;4955358;29;20051;-90
2021/12/22 01:12:47;;;;;;;1.60;1.50;;;;;;;-22.41;74.92;98745.72;4955644;28;20055;-90
2021/12/22 01:15:15;;;;;;;1.50;1.40;;;;;;;-22.38;74.96;98753.28;4956046;29;20110;-89
2021/12/22 01:17:46;;;;;;;1.58;1.48;;;;;;;-22.42;74.66;98742.31;4956248;29;20138;-89
2021/12/22 01:20:23;;;;;;;1.55;1.45;;;;;;;-22.50;74.68;98751.94;4956091;28;20059;-90
2021/12/22 01:22:52;;;;;;;1.50;1.40;;;;;;;-22.45;74.83;98757.75;4960116;29;20118;-87
2021/12/22 01:25:22;;;;;;;1.60;1.50;;;;;;;-22.42;74.92;98759.41;4968824;29;20047;-88
2021/12/22 01:27:55;;;;;;;1.50;1.40;;;;;;;-22.39;74.88;98764.41;4979035;28;20116;-90
2021/12/22 01:30:28;;;;;;;1.50;1.40;;;;;;;-22.41;74.87;98761.88;4979188;28;20031;-87
2021/12/22 01:32:58;;;;;;;1.50;1.40;;;;;;;-22.42;74.66;98760.22;4977190;28;20057;-88
2021/12/22 01:35:28;;;;;;;1.60;1.50;;;;;;;-22.46;74.80;98755.25;4975850;29;20035;-89
2021/12/22 01:37:56;;;;;;;1.50;1.40;;;;;;;-22.49;74.81;98756.16;4974299;28;20055;-89
2021/12/22 01:40:23;;;;;;;1.50;1.40;;;;;;;-22.51;74.65;98752.81;4973346;29;20142;-89
2021/12/22 01:42:51;;;;;;;1.50;1.40;;;;;;;-22.49;74.40;98748.50;4955566;29;20148;-88
2021/12/22 01:51:34;;;;;;;1.73;1.63;;;;;;;-22.51;74.44;98745.13;4962710;29;20067;-90
2021/12/22 01:54:05;;;;;;;1.90;1.80;;;;;;;-22.61;74.45;98748.84;4964586;29;20055;-89
2021/12/22 01:56:34;;;;;;;1.52;1.42;;;;;;;-22.72;74.50;98751.72;4946469;29;20063;-89
2021/12/22 01:59:05;;;;;;;1.67;1.58;;;;;;;-22.75;74.79;98749.28;4961521;29;20102;-89
2021/12/22 02:01:33;;;;;;;1.60;1.50;;;;;;;-22.82;74.68;98750.31;4955712;29;20090;-89
2021/12/22 02:04:01;;;;;;;1.67;1.58;;;;;;;-22.86;74.69;98752.13;4954474;29;20106;-89
2021/12/22 02:06:29;;;;;;;1.58;1.48;;;;;;;-22.79;74.66;98745.13;4955306;29;20079;-88
2021/12/22 02:08:58;;;;;;;1.55;1.45;;;;;;;-22.73;74.70;98744.94;4954739;29;20102;-88
2021/12/22 02:11:25;;;;;;;1.65;1.55;;;;;;;-22.63;74.48;98755.72;4954774;29;20061;-90
2021/12/22 02:14:01;;;;;;;1.65;1.55;;;;;;;-22.57;74.41;98747.91;4955482;29;20110;-89
2021/12/22 02:16:33;;;;;;;5.32;1.55;;;;;;;-22.49;74.50;98750.22;4955588;29;20047;-91
2021/12/22 02:19:02;;;;;;;1.40;1.30;;;;;;;-22.46;74.35;98747.56;4955447;28;20055;-88
2021/12/22 02:21:34;;;;;;;1.77;1.67;;;;;;;-22.44;74.27;98746.63;4958681;29;20146;-89
2021/12/22 02:24:01;;;;;;;1.60;1.50;;;;;;;-22.42;74.28;98749.16;4957904;29;20098;-89
2021/12/22 02:26:36;;;;;;;1.77;1.67;;;;;;;-22.44;74.11;98741.53;4958208;29;20345;-90
2021/12/22 02:29:07;;;;;;;1.52;1.42;;;;;;;-22.50;74.12;98736.59;4958456;29;20712;-90
2021/12/22 02:31:41;;;;;;;3.05;1.50;;;;;;;-22.48;74.30;98741.66;4942872;29;20079;-90
2021/12/22 02:34:14;;;;;;;;;;;;;;;-22.49;74.24;98747.66;4961713;29;20051;-90
2021/12/22 02:36:44;;;;;;;1.75;1.65;;;;;;;-22.51;74.31;98744.31;4960276;29;19930;-89
2021/12/22 02:39:12;;;;;;;1.77;1.67;;;;;;;-22.55;74.23;98733.34;4959502;29;20066;-89
2021/12/22 02:41:40;;;;;;;1.40;1.30;;;;;;;-22.60;74.19;98738.59;4960230;29;20542;-90
2021/12/22 02:44:10;;;;;;;1.70;1.60;;;;;;;-22.63;74.41;98740.38;4942457;29;20059;-91
2021/12/22 02:46:39;;;;;;;1.70;1.60;;;;;;;-22.65;74.43;98753.22;4961234;29;20150;-89
2021/12/22 02:49:08;;;;;;;1.50;1.40;;;;;;;-22.67;74.50;98751.59;4944619;28;20058;-89
2021/12/22 02:51:40;;;;;;;1.60;1.50;;;;;;;-22.66;74.77;98754.09;4979150;28;20146;-90
2021/12/22 02:54:19;;;;;;;1.65;1.55;;;;;;;-22.64;74.94;98748.94;4978786;28;20061;-90
2021/12/22 02:59:48;;;;;;;1.55;1.45;;;;;;;-22.57;74.91;98742.78;4991211;28;20061;-87
2021/12/22 03:02:24;;;;;;;1.58;1.48;;;;;;;-22.52;74.84;98746.03;4979001;28;20074;-89
2021/12/22 03:04:57;;;;;;;1.60;1.50;;;;;;;-22.45;74.90;98739.00;4978174;28;20150;-89
2021/12/22 03:07:31;;;;;;;1.70;1.60;;;;;;;-22.43;74.75;98745.75;4978092;28;20101;-90
2021/12/22 03:10:03;;;;;;;;;;;;;;;-22.51;74.50;98740.03;4962102;28;20077;-91
2021/12/22 03:12:34;;;;;;;1.58;1.48;;;;;;;-22.60;74.33;98733.47;4962210;28;19972;-90
2021/12/22 03:15:03;;;;;;;1.60;1.50;;;;;;;-22.62;74.41;98742.06;4979737;28;20109;-90
2021/12/22 03:17:31;;;;;;;1.70;1.60;;;;;;;-22.64;74.42;98738.72;4980513;28;20059;-87
2021/12/22 03:19:58;;;;;;;1.40;1.30;;;;;;;-22.70;74.24;98741.47;4988079;28;20133;-94
2021/12/22 03:22:25;;;;;;;1.58;1.48;;;;;;;-22.73;74.37;98744.09;4987490;28;20047;-92
2021/12/22 03:24:52;;;;;;;1.40;1.30;;;;;;;-22.84;74.21;98740.13;4988412;28;20130;-92
2021/12/22 03:27:22;;;;;;;1.60;1.50;;;;;;;-22.95;74.40;98734.50;4985015;28;20051;-95
2021/12/22 03:29:49;;;;;;;1.70;1.60;;;;;;;-23.00;74.52;98747.44;4983767;28;20057;-90
2021/12/22 03:32:16;;;;;;;1.50;1.40;;;;;;;-23.09;74.36;98736.63;4972474;28;20055;-91
2021/12/22 03:34:43;;;;;;;1.67;1.58;;;;;;;-23.04;74.78;98747.56;4958889;29;20550;-88
2021/12/22 03:37:11;;;;;;;1.60;1.50;;;;;;;-23.05;74.66;98744.16;4959446;29;20071;-92
2021/12/22 03:39:38;;;;;;;1.50;1.40;;;;;;;-23.12;74.60;98746.94;4613447;28;10000083;-93
2021/12/22 03:42:07;;;;;;;1.58;1.48;;;;;;;-23.11;74.59;98738.38;4960464;29;20074;-92
2021/12/22 03:44:36;;;;;;;1.70;1.60;;;;;;;-23.07;74.64;98739.97;4949194;29;20525;-91
2021/12/22 03:47:04;;;;;;;1.52;1.42;;;;;;;-23.02;74.58;98749.19;4957537;29;20085;-87
2021/12/22 03:49:31;;;;;;;1.50;1.40;;;;;;;-22.94;74.37;98756.59;4952708;29;20549;-91
2021/12/22 03:51:58;;;;;;;1.42;1.33;;;;;;;-22.90;74.21;98747.16;4957730;29;20078;-90
2021/12/22 03:54:26;;;;;;;1.50;1.40;;;;;;;-22.78;74.22;98760.44;4955185;29;20143;-87
2021/12/22 03:56:53;;;;;;;1.77;1.67;;;;;;;-22.73;74.35;98750.06;4958138;28;20079;-90
2021/12/22 03:59:20;;;;;;;1.60;1.50;;;;;;;-22.67;74.44;98752.44;4956756;29;20335;-92
2021/12/22 04:01:47;;;;;;;1.60;1.50;;;;;;;-22.64;74.43;98759.19;4962646;29;20446;-88
2021/12/22 04:04:18;;;;;;;1.40;1.30;;;;;;;-22.58;74.15;98751.31;4946032;29;20066;-92
2021/12/22 04:06:46;;;;;;;1.70;1.60;;;;;;;-22.53;74.23;98759.69;4961031;29;20078;-90
2021/12/22 04:09:15;;;;;;;1.63;1.52;;;;;;;-22.51;73.97;98759.66;4960889;28;20085;-91
2021/12/22 04:11:43;;;;;;;1.50;1.40;;;;;;;-22.55;74.01;98770.00;4960633;28;20047;-91
2021/12/22 04:14:11;;;;;;;1.60;1.50;;;;;;;-22.57;74.09;98764.06;4961877;29;20047;-91
2021/12/22 04:16:47;;;;;;;1.70;1.60;;;;;;;-22.61;74.06;98770.16;4928806;29;20527;-91
2021/12/22 04:19:14;;;;;;;1.65;1.55;;;;;;;-22.60;74.21;98779.50;4959810;29;20066;-91
2021/12/22 04:21:41;;;;;;;1.70;1.60;;;;;;;-22.57;74.34;98778.59;4958290;29;20051;-91
2021/12/22 04:24:11;;;;;;;1.55;1.45;;;;;;;-22.53;74.61;98777.59;4959971;28;20055;-91
2021/12/22 04:26:39;;;;;;;1.60;1.50;;;;;;;-22.52;74.47;98779.28;4961006;28;20051;-92
2021/12/22 04:29:11;;;;;;;1.50;1.40;;;;;;;-22.51;74.63;98773.28;4962537;29;20558;-91
2021/12/22 04:31:48;;;;;;;1.40;1.30;;;;;;;-22.53;74.70;98775.03;4945274;29;20459;-92
2021/12/22 04:34:16;;;;;;;1.65;1.55;;;;;;;-22.54;74.63;98771.66;4936503;29;20528;-90
2021/12/22 04:36:49;;;;;;;1.85;1.75;;;;;;;-22.45;74.61;98780.78;4952248;29;20051;-90
2021/12/22 04:39:18;;;;;;;1.60;1.50;;;;;;;-22.43;74.61;98781.56;4930806;29;20051;-90
2021/12/22 04:42:00;;;;;;;1.50;1.40;;;;;;;-22.55;74.63;98759.75;4965325;28;20051;-90
2021/12/22 04:44:27;;;;;;;1.50;1.40;;;;;;;-22.48;74.86;98759.56;4945877;29;20401;-91
2021/12/22 04:46:54;;;;;;;1.60;1.50;;;;;;;-22.46;74.76;98752.69;4965048;28;20082;-91
2021/12/22 04:49:40;;;;;;;1.70;1.60;;;;;;;-22.51;74.58;98763.03;4932164;29;20040;-90
2021/12/22 04:52:19;;;;;;;1.40;1.30;;;;;;;-22.41;74.62;98767.00;4917992;29;20055;-92
2021/12/22 04:55:02;;;;;;;1.63;1.52;;;;;;;-22.40;74.52;98776.38;4970424;28;20043;-91
2021/12/22 04:58:20;;;;;;;1.50;1.40;;;;;;;-22.35;74.64;98777.06;4977854;28;20035;-88
2021/12/22 05:00:47;;;;;;;1.50;1.40;;;;;;;-22.46;74.67;98758.63;4952513;29;20129;-92
2021/12/22 05:03:15;;;;;;;1.60;1.50;;;;;;;-22.50;74.60;98757.06;4974149;28;20087;-91
2021/12/22 05:05:42;;;;;;;1.40;1.30;;;;;;;-22.45;74.60;98752.66;4977364;28;20039;-92
2021/12/22 05:08:09;;;;;;;1.50;1.40;;;;;;;-22.49;74.64;98747.66;4972227;28;20425;-92
2021/12/22 05:10:37;;;;;;;1.60;1.50;;;;;;;-22.44;74.75;98762.00;4962312;28;20547;-92
2021/12/22 05:13:04;;;;;;;1.63;1.52;;;;;;;-22.53;74.61;98752.00;4966872;28;20028;-93
2021/12/22 05:15:36;;;;;;;1.70;1.60;;;;;;;-22.37;74.65;98768.59;4976980;28;20074;-91
2021/12/22 05:18:25;;;;;;;1.50;1.40;;;;;;;-22.46;74.67;98761.19;4968009;28;20580;-93
2021/12/22 05:20:54;;;;;;;1.50;1.40;;;;;;;-22.52;74.52;98753.72;4969064;29;20051;-92
2021/12/22 05:23:24;;;;;;;1.52;1.42;;;;;;;-22.49;74.73;98766.41;4965391;28;20086;-91
2021/12/22 05:25:51;;;;;;;1.60;1.50;;;;;;;-22.55;74.52;98764.03;4963731;29;20103;-91
2021/12/22 05:28:19;;;;;;;1.60;1.50;;;;;;;-22.53;74.58;98775.03;4964226;28;20078;-92
2021/12/22 05:30:47;;;;;;;1.50;1.40;;;;;;;-22.58;74.63;98764.97;4946905;29;20055;-92
2021/12/22 05:33:14;;;;;;;1.50;1.40;;;;;;;-22.77;74.63;98738.25;4944754;29;20051;-92
2021/12/22 05:35:41;;;;;;;1.48;1.38;;;;;;;-22.70;74.70;98765.31;4967488;28;20207;-91
2021/12/22 05:38:09;;;;;;;1.48;1.38;;;;;;;-22.83;74.79;98749.50;4967618;28;20047;-94
2021/12/22 05:40:36;;;;;;;1.40;1.30;;;;;;;-22.80;74.91;98763.91;4969198;28;20515;-93
2021/12/22 05:43:19;;;;;;;1.65;1.55;;;;;;;-22.76;75.09;98768.03;4944103;29;20483;-92
2021/12/22 05:46:02;;;;;;;1.80;1.70;;;;;;;-22.81;75.14;98757.97;4950892;29;20050;-91
2021/12/22 05:48:30;;;;;;;1.60;1.50;;;;;;;-22.88;75.33;98756.44;4968177;28;20071;-92
2021/12/22 05:50:58;;;;;;;1.50;1.40;;;;;;;-22.79;75.50;98771.50;4965343;29;20055;-91
2021/12/22 05:53:26;;;;;;;1.50;1.40;;;;;;;-22.81;75.20;98768.19;4968661;28;20078;-91
2021/12/22 05:55:53;;;;;;;1.67;1.58;;;;;;;-22.71;75.40;98773.03;4965143;29;20059;-89
2021/12/22 05:58:22;;;;;;;1.40;1.30;;;;;;;-22.70;75.41;98779.81;4953581;29;20051;-90
2021/12/22 06:00:49;;;;;;;1.40;1.30;;;;;;;-22.68;75.39;98772.94;4961001;28;20062;-92
2021/12/22 06:03:20;;;;;;;1.50;1.40;;;;;;;-22.65;75.63;98772.88;4972460;28;20051;-92
2021/12/22 06:05:47;;;;;;;1.40;1.30;;;;;;;-22.65;75.39;98777.97;4968286;28;20051;-91
2021/12/22 06:08:15;;;;;;;1.65;1.55;;;;;;;-22.62;75.43;98780.44;4970018;29;20407;-88
2021/12/22 06:10:42;;;;;;;1.40;1.30;;;;;;;-22.63;75.43;98782.16;4978143;28;20058;-89
2021/12/22 06:13:10;;;;;;;1.60;1.50;;;;;;;-22.62;75.58;98778.72;4986816;28;20055;-91
2021/12/22 06:15:39;;;;;;;1.58;1.48;;;;;;;-22.58;75.44;98779.44;4967049;28;20123;-92
2021/12/22 06:18:07;;;;;;;1.50;1.40;;;;;;;-22.59;75.09;98782.91;4970198;28;20062;-90
2021/12/22 06:20:37;;;;;;;1.60;1.50;;;;;;;-22.58;75.05;98776.91;4982360;28;20086;-91
2021/12/22 06:23:04;;;;;;;1.50;1.40;;;;;;;-22.60;74.85;98773.56;4973306;28;20069;-90
2021/12/22 06:25:35;;;;;;;1.50;1.40;;;;;;;-22.54;75.10;98778.50;4969838;28;20059;-91
2021/12/22 06:28:03;;;;;;;1.40;1.30;;;;;;;-22.50;75.21;98779.22;4971432;28;20332;-90
2021/12/22 06:30:31;;;;;;;1.60;1.50;;;;;;;-22.51;75.13;98786.06;4986922;28;20046;-91
2021/12/22 06:32:58;;;;;;;1.60;1.50;;;;;;;-22.48;75.03;98785.13;4975584;28;20077;-91
2021/12/22 06:35:25;;;;;;;1.45;1.35;;;;;;;-22.50;74.86;98784.34;4968392;28;20074;-87
2021/12/22 06:37:54;;;;;;;1.50;1.40;;;;;;;-22.52;74.87;98786.97;4973425;28;20530;-87
2021/12/22 06:40:31;;;;;;;1.50;1.40;;;;;;;-22.52;74.70;98792.06;4973942;28;20051;-85
2021/12/22 06:42:58;;;;;;;1.50;1.40;;;;;;;-22.49;74.73;98797.09;4973801;28;20166;-93
2021/12/22 06:45:32;;;;;;;1.60;1.50;;;;;;;-22.44;74.51;98791.84;4942411;28;20078;-88
2021/12/22 06:48:06;;;;;;;1.80;1.70;;;;;;;-22.38;74.54;98801.91;4964062;28;20149;-90
2021/12/22 06:50:37;;;;;;;;;;;;;;;-22.26;74.23;98795.59;4964496;28;20051;-90
2021/12/22 06:53:07;;;;;;;1.50;1.40;;;;;;;-22.22;74.07;98809.97;4965071;28;19917;-92
2021/12/22 06:55:34;;;;;;;1.60;1.50;;;;;;;-22.24;73.96;98798.94;4971636;28;20059;-92
2021/12/22 06:58:02;;;;;;;1.67;1.58;;;;;;;-22.18;73.75;98798.72;4945616;29;20137;-89
2021/12/22 07:00:29;;;;;;;1.70;1.60;;;;;;;-22.14;73.69;98810.53;4612376;28;10000282;-90
2021/12/22 07:02:59;;;;;;;1.60;1.50;;;;;;;-22.08;73.66;98815.47;4969144;28;20616;-90
2021/12/22 07:05:27;;;;;;;1.58;1.48;;;;;;;-22.03;73.66;98811.03;4953242;28;20488;-88
2021/12/22 07:07:57;;;;;;;1.60;1.50;;;;;;;-21.98;73.61;98806.63;4973941;28;20145;-90
2021/12/22 07:10:24;;;;;;;1.70;1.60;;;;;;;-21.84;73.64;98807.94;4955603;29;20410;-88
2021/12/22 07:12:52;;;;;;;1.70;1.60;;;;;;;-21.67;73.19;98803.97;4966188;28;20102;-86
2021/12/22 07:15:19;;;;;;;1.70;1.60;;;;;;;-21.40;73.05;98803.94;4951880;29;20115;-87
2021/12/22 07:17:49;;;;;;;1.50;1.40;;;;;;;-21.36;72.34;98794.41;4972716;28;20126;-90
2021/12/22 07:20:17;;;;;;;1.50;1.40;;;;;;;-21.30;71.53;98804.44;4959215;28;20050;-92
2021/12/22 07:22:44;;;;;;;1.60;1.50;;;;;;;-21.14;71.34;98799.63;4972654;28;20054;-87
2021/12/22 07:25:13;;;;;;;1.60;1.50;;;;;;;-20.95;71.02;98804.97;4956225;29;20047;-90
2021/12/22 07:27:41;;;;;;;1.70;1.60;;;;;;;-20.78;70.76;98815.47;4960120;28;20062;-87
2021/12/22 07:30:08;;;;;;;1.55;1.45;;;;;;;-20.64;70.15;98813.22;4959894;28;20046;-88
2021/12/22 07:32:39;;;;;;;1.58;1.48;;;;;;;-20.77;69.48;98812.84;4968113;28;20075;-89
2021/12/22 07:35:10;;;;;;;1.60;1.50;;;;;;;-20.73;69.18;98821.28;4971588;28;20077;-88
2021/12/22 07:37:45;;;;;;;1.40;1.30;;;;;;;-20.73;68.88;98808.44;4970110;28;20696;-89
2021/12/22 07:40:15;;;;;;;1.60;1.50;;;;;;;-20.69;68.97;98809.16;4956707;28;20093;-86
2021/12/22 07:42:45;;;;;;;1.73;1.63;;;;;;;-20.72;68.58;98814.41;4958553;28;20051;-85
2021/12/22 07:45:13;;;;;;;1.60;1.50;;;;;;;-20.42;68.52;98809.88;4969011;28;20081;-86
2021/12/22 07:47:40;;;;;;;1.80;1.70;;;;;;;-20.29;67.25;98816.22;4967034;28;20047;-85
2021/12/22 07:50:08;;;;;;;1.90;1.80;;;;;;;-20.00;67.01;98811.72;4936361;29;20462;-87
2021/12/22 07:52:35;;;;;;;1.80;1.70;;;;;;;-19.74;66.64;98819.25;4964586;28;20125;-86
2021/12/22 07:55:03;;;;;;;1.77;1.67;;;;;;;-19.60;66.15;98813.53;4982505;28;20073;-86
2021/12/22 07:57:38;;;;;;;1.80;1.70;;;;;;;-19.40;65.43;98810.16;4978984;28;20053;-86
2021/12/22 08:00:06;;;;;;;1.70;1.60;;;;;;;-19.13;65.09;98808.19;4968687;28;20199;-88
2021/12/22 08:02:39;;;;;;;1.75;1.65;;;;;;;-19.17;64.28;98808.38;4972961;28;20062;-87
2021/12/22 08:05:08;;;;;;;1.50;1.40;;;;;;;-19.27;64.65;98806.16;4961056;28;20054;-87
2021/12/22 08:08:03;;;;;;;1.60;1.50;;;;;;;-18.78;64.63;98813.59;4956608;29;20074;-86
2021/12/22 08:10:31;;;;;;;2.05;1.95;;;;;;;-18.38;63.36;98815.22;4967862;28;20055;-87
2021/12/22 08:12:58;;;;;;;1.73;1.63;;;;;;;-18.23;62.65;98818.81;4968070;28;20061;-85
2021/12/22 08:15:25;;;;;;;1.90;1.80;;;;;;;-17.87;62.41;98823.22;4968747;28;20043;-85
2021/12/22 08:17:58;;;;;;;1.65;1.55;;;;;;;-17.66;61.67;98813.59;4967849;28;20498;-88
2021/12/22 08:20:27;;;;;;;1.73;1.63;;;;;;;-17.78;60.81;98816.75;4976358;28;20489;-88
2021/12/22 08:22:57;;;;;;;1.70;1.60;;;;;;;-17.65;60.39;98819.59;4990282;28;20074;-87
2021/12/22 08:25:24;;;;;;;1.83;1.73;;;;;;;-17.64;60.10;98805.78;4997967;28;20112;-86
2021/12/22 08:27:52;;;;;;;1.73;1.63;;;;;;;-17.52;59.48;98818.09;4985223;28;20061;-86
2021/12/22 08:30:22;;;;;;;1.60;1.50;;;;;;;-17.58;59.36;98823.56;4972698;28;20054;-85
2021/12/22 08:32:50;;;;;;;1.55;1.45;;;;;;;-17.89;59.52;98816.47;4964475;28;20047;-88
2021/12/22 08:35:24;;;;;;;1.60;1.50;;;;;;;-18.41;60.31;98825.63;4963980;28;20059;-89
2021/12/22 08:40:37;;;;;;;1.70;1.60;;;;;;;-19.07;62.04;98820.78;4970716;28;20102;-88
2021/12/22 08:43:06;;;;;;;1.60;1.50;;;;;;;-18.60;62.08;98811.91;4971035;28;20081;-88
2021/12/22 08:45:33;;;;;;;1.58;1.48;;;;;;;-18.74;61.59;98819.38;4934171;29;20055;-82
2021/12/22 08:48:02;;;;;;;1.65;1.55;;;;;;;-18.88;62.28;98814.88;4950500;29;20062;-82
2021/12/22 08:50:30;;;;;;;1.70;1.60;;;;;;;-18.52;62.30;98809.84;4934992;29;20189;-86
2021/12/22 08:52:57;;;;;;;1.52;1.42;;;;;;;-18.15;61.53;98810.75;4957429;28;20051;-87
2021/12/22 08:55:25;;;;;;;1.50;1.40;;;;;;;-18.15;60.75;98810.75;4966327;28;20051;-90
2021/12/22 08:57:52;;;;;;;1.60;1.50;;;;;;;-18.05;60.79;98808.59;4980804;28;20031;-92
2021/12/22 09:00:19;;;;;;;1.60;1.50;;;;;;;-17.65;60.59;98804.13;4988162;28;20031;-92
2021/12/22 09:02:46;;;;;;;1.70;1.60;;;;;;;-17.18;58.79;98808.72;4978400;28;20061;-92
2021/12/22 09:05:13;;;;;;;1.75;1.65;;;;;;;-16.82;58.07;98808.63;4974798;28;20070;-92
2021/12/22 09:07:40;;;;;;;1.60;1.50;;;;;;;-16.50;57.48;98809.53;4976533;28;20089;-90
2021/12/22 09:10:08;;;;;;;1.95;1.85;;;;;;;-16.29;56.01;98804.97;4974014;28;20129;-90
2021/12/22 09:12:35;;;;;;;1.85;1.75;;;;;;;-16.30;55.79;98810.22;4984202;28;20042;-93
2021/12/22 09:15:03;;;;;;;1.90;1.80;;;;;;;-16.65;55.86;98807.75;4994457;28;20057;-94
2021/12/22 09:17:45;;;;;;;1.60;1.50;;;;;;;-17.09;56.49;98813.41;4967739;28;20058;-93
2021/12/22 09:20:21;;;;;;;1.65;1.55;;;;;;;-17.08;57.66;98821.09;4961774;28;20085;-88
2021/12/22 09:22:48;;;;;;;1.60;1.50;;;;;;;-17.26;57.79;98816.84;4956200;29;20047;-89
2021/12/22 09:25:17;;;;;;;1.75;1.65;;;;;;;-16.94;58.00;98822.97;4977591;28;20054;-90
2021/12/22 09:28:13;;;;;;;1.67;1.58;;;;;;;-16.26;56.97;98819.47;4967400;28;20057;-89
2021/12/22 09:30:44;;;;;;;2.10;1.98;;;;;;;-16.26;56.33;98815.13;4957898;28;20066;-88
2021/12/22 09:33:14;;;;;;;2.05;1.95;;;;;;;-16.27;55.89;98805.72;4957587;28;20058;-90
2021/12/22 09:35:47;;;;;;;1.63;1.52;;;;;;;-16.26;56.08;98809.16;4980209;28;20580;-92
2021/12/22 09:38:16;;;;;;;1.67;1.58;;;;;;;-16.44;56.41;98809.19;4965392;28;20078;-90
2021/12/22 09:40:48;;;;;;;1.70;1.60;;;;;;;-16.38;55.74;98808.03;4954964;29;20054;-88
2021/12/22 09:43:15;;;;;;;2.30;2.10;;;;;;;-16.20;55.18;98804.50;4966207;28;20078;-88
2021/12/22 09:45:48;;;;;;;1.88;1.77;;;;;;;-15.86;55.53;98801.84;4967202;28;20062;-88
2021/12/22 09:48:29;;;;;;;1.73;1.63;;;;;;;-16.11;54.18;98808.31;4964372;28;20046;-89
2021/12/22 09:53:31;;;;;;;1.98;1.88;;;;;;;-15.71;53.71;98801.00;4961473;28;20062;-92
2021/12/22 09:55:59;;;;;;;1.80;1.70;;;;;;;-15.42;52.74;98796.72;4980555;28;20066;-87
2021/12/22 09:58:27;;;;;;;2.45;2.25;;;;;;;-15.03;52.09;98803.16;4985856;28;20481;-91
2021/12/22 10:00:57;;;;;;;2.17;2.05;;;;;;;-14.82;50.49;98813.19;4977981;28;20121;-86
2021/12/22 10:03:25;;;;;;;1.90;1.80;;;;;;;-15.03;50.51;98813.53;4993137;28;20062;-88
2021/12/22 10:05:53;;;;;;;2.38;2.17;;;;;;;-14.92;50.50;98826.66;4975503;28;20059;-90
2021/12/22 10:08:22;;;;;;;2.00;1.90;;;;;;;-14.55;50.58;98823.69;4969822;28;20063;-88
2021/12/22 10:11:12;;;;;;;2.30;2.10;;;;;;;-14.41;50.07;98811.53;4976609;28;20050;-93
2021/12/22 10:13:44;;;;;;;2.08;1.98;;;;;;;-14.17;49.62;98813.56;4965775;28;20047;-87
2021/12/22 10:16:16;;;;;;;2.17;2.05;;;;;;;-14.06;49.01;98815.50;4971992;28;20063;-90
2021/12/22 10:18:44;;;;;;;1.70;1.60;;;;;;;-14.65;48.96;98807.84;4957210;29;20051;-89
2021/12/22 10:21:23;;;;;;;1.85;1.75;;;;;;;-15.19;50.50;98823.06;4951578;28;20046;-91
2021/12/22 10:23:52;;;;;;;1.60;1.50;;;;;;;-15.34;50.92;98815.28;4982556;28;20086;-91
2021/12/22 10:26:25;;;;;;;2.00;1.90;;;;;;;-16.18;51.32;98820.75;4960544;28;20050;-91
2021/12/22 10:29:00;;;;;;;2.00;1.90;;;;;;;-16.22;52.79;98816.66;4969756;28;20055;-92
2021/12/22 10:31:40;;;;;;;1.67;1.58;;;;;;;-16.31;52.89;98817.13;4963733;28;20062;-90
2021/12/22 10:34:13;;;;;;;1.77;1.67;;;;;;;-16.57;53.23;98820.25;4960547;28;20062;-88
2021/12/22 10:36:49;;;;;;;1.63;1.52;;;;;;;-16.83;54.00;98825.03;4966527;28;20059;-89
2021/12/22 10:39:26;;;;;;;1.85;1.75;;;;;;;-17.16;54.67;98818.06;4973619;28;20055;-89
2021/12/22 10:42:08;;;;;;;1.67;1.58;;;;;;;-17.55;55.58;98823.41;4983208;28;20051;-89
2021/12/22 10:44:40;;;;;;;1.80;1.70;;;;;;;-17.85;56.14;98816.22;4986107;28;20082;-86
2021/12/22 10:47:35;;;;;;;1.60;1.50;;;;;;;-18.19;57.21;98816.94;4980082;28;20118;-87
2021/12/22 10:50:07;;;;;;;1.92;1.83;;;;;;;-18.65;58.13;98829.31;4971619;28;20303;-87
2021/12/22 10:52:35;;;;;;;1.60;1.50;;;;;;;-18.50;58.15;98835.53;4965930;28;20066;-90
2021/12/22 10:55:46;;;;;;;1.50;1.40;;;;;;;-18.49;58.23;98830.28;4982412;28;20066;-88
2021/12/22 10:58:34;;;;;;;1.75;1.65;;;;;;;-18.01;58.06;98828.16;4968012;28;20114;-88
2021/12/22 11:01:13;;;;;;;1.52;1.42;;;;;;;-17.78;57.72;98832.22;4977066;28;20051;-87
2021/12/22 11:03:48;;;;;;;1.73;1.63;;;;;;;-17.80;57.51;98832.31;4981858;28;20073;-89
2021/12/22 11:06:15;;;;;;;1.63;1.52;;;;;;;-17.95;57.26;98833.03;4986463;28;20054;-89
2021/12/22 11:09:15;;;;;;;1.50;1.40;;;;;;;-17.49;57.32;98831.69;4980137;28;20047;-88
2021/12/22 11:11:55;;;;;;;1.88;1.77;;;;;;;-16.92;56.24;98831.47;4894403;29;20064;-88
2021/12/22 11:14:24;;;;;;;1.80;1.70;;;;;;;-16.88;55.37;98834.75;4898854;29;20053;-88
2021/12/22 11:17:07;;;;;;;2.03;1.92;;;;;;;-16.93;55.05;98840.16;4889906;29;20136;-88
2021/12/22 11:20:03;;;;;;;1.80;1.70;;;;;;;-16.35;54.96;98841.50;4894413;29;20052;-88
2021/12/22 11:22:59;;;;;;;;;;;;;;;-16.51;54.12;98838.84;4893969;29;20080;-88
2021/12/22 11:25:28;;;;;;;1.67;1.58;;;;;;;-16.92;54.38;98857.31;4883320;29;20004;-86
2021/12/22 11:28:01;;;;;;;1.60;1.50;;;;;;;-17.01;54.76;98851.75;4895618;29;20057;-87
2021/12/22 11:30:28;;;;;;;1.60;1.50;;;;;;;-16.91;54.99;98863.28;4894605;29;20099;-88
2021/12/22 11:32:56;;;;;;;1.50;1.40;;;;;;;-16.99;54.94;98866.25;4860304;29;20105;-88
2021/12/22 11:35:24;;;;;;;1.70;1.60;;;;;;;-16.93;55.56;98878.88;4892934;29;20060;-89
2021/12/22 11:37:56;;;;;;;1.70;1.60;;;;;;;-16.95;55.41;98877.28;4900395;29;20069;-89
2021/12/22 11:40:25;;;;;;;1.80;1.70;;;;;;;-17.33;55.47;98872.22;4887583;29;20108;-87
2021/12/22 11:42:54;;;;;;;1.70;1.60;;;;;;;-17.67;56.81;98862.66;4890238;29;20188;-91
2021/12/22 11:45:23;;;;;;;1.67;1.58;;;;;;;-17.67;57.17;98873.78;4904116;29;20060;-86
2021/12/22 11:47:53;;;;;;;1.60;1.50;;;;;;;-18.17;57.38;98871.81;4943793;28;20054;-84
2021/12/22 11:50:30;;;;;;;1.50;1.40;;;;;;;-18.58;58.20;98874.44;4981917;28;20065;-90
2021/12/22 11:53:04;;;;;;;1.42;1.33;;;;;;;-18.66;58.97;98873.94;4947220;28;20109;-87
2021/12/22 11:55:43;;;;;;;1.10;1.10;;;;;;;-18.56;59.30;98872.66;4970880;28;20051;-89
2021/12/22 11:58:35;;;;;;;1.50;1.40;;;;;;;-18.53;59.42;98877.69;4968106;29;20053;-88